createdAt,value
2024-01-16T00:01:44.230Z,81.91
2024-01-16T00:04:12.108Z,82.02
2024-01-16T00:06:45.092Z,81.92
2024-01-16T00:09:13.597Z,81.28
2024-01-16T00:11:44.525Z,81.64
2024-01-16T00:14:11.920Z,81.58
2024-01-16T00:16:46.567Z,81.95
2024-01-16T00:19:13.889Z,82.30
2024-01-16T00:21:42.355Z,81.16
2024-01-16T00:24:09.752Z,81.57
2024-01-16T00:26:37.355Z,82.08
2024-01-16T00:29:04.364Z,81.10
2024-01-16T00:31:31.679Z,81.04
2024-01-16T00:33:58.641Z,81.80
2024-01-16T00:36:25.659Z,82.22
2024-01-16T00:38:52.608Z,81.89
2024-01-16T00:41:20.810Z,83.42
2024-01-16T00:43:47.760Z,82.73
2024-01-16T00:46:14.951Z,81.46
2024-01-16T00:48:42.384Z,82.16
2024-01-16T00:51:09.328Z,81.55
2024-01-16T00:53:44.659Z,82.43
2024-01-16T00:56:13.688Z,81.74
2024-01-16T00:58:40.705Z,80.79
2024-01-16T01:01:07.621Z,80.10
2024-01-16T01:03:34.693Z,80.73
2024-01-16T01:06:02.205Z,81.87
2024-01-16T01:08:29.490Z,80.41
2024-01-16T01:10:56.857Z,81.35
2024-01-16T01:13:23.897Z,81.27
2024-01-16T01:15:50.898Z,81.00
2024-01-16T01:18:17.975Z,80.83
2024-01-16T01:20:45.030Z,83.21
2024-01-16T01:23:12.215Z,83.04
2024-01-16T01:25:39.655Z,85.09
2024-01-16T01:28:06.817Z,85.11
2024-01-16T01:30:33.928Z,84.94
2024-01-16T01:33:00.990Z,84.54
2024-01-16T01:35:28.560Z,84.73
2024-01-16T01:37:55.706Z,82.60
2024-01-16T01:40:22.671Z,82.43
2024-01-16T01:42:49.627Z,83.17
2024-01-16T01:45:16.723Z,82.32
2024-01-16T01:47:43.949Z,81.43
2024-01-16T01:50:17.665Z,80.93
2024-01-16T01:52:45.191Z,81.03
2024-01-16T01:55:14.732Z,81.59
2024-01-16T01:57:44.228Z,81.39
2024-01-16T02:00:12.193Z,82.67
2024-01-16T02:02:41.876Z,80.43
2024-01-16T02:05:09.254Z,81.25
2024-01-16T02:07:36.901Z,81.71
2024-01-16T02:10:06.467Z,83.88
2024-01-16T02:12:33.355Z,82.56
2024-01-16T02:15:00.212Z,82.53
2024-01-16T02:17:27.078Z,82.95
2024-01-16T02:19:54.931Z,82.33
2024-01-16T02:22:24.813Z,82.78
2024-01-16T02:24:52.164Z,82.65
2024-01-16T02:27:19.066Z,81.38
2024-01-16T02:29:47.774Z,80.85
2024-01-16T02:32:16.728Z,80.24
2024-01-16T02:34:44.610Z,78.07
2024-01-16T02:37:11.473Z,77.48
2024-01-16T02:39:38.299Z,77.35
2024-01-16T02:42:05.484Z,81.04
2024-01-16T02:44:32.793Z,80.86
2024-01-16T02:46:59.737Z,81.57
2024-01-16T02:49:27.380Z,82.36
2024-01-16T02:51:55.495Z,85.33
2024-01-16T02:54:23.683Z,84.03
2024-01-16T02:56:51.016Z,82.94
2024-01-16T02:59:18.406Z,83.41
2024-01-16T03:01:45.364Z,81.78
2024-01-16T03:04:12.668Z,82.26
2024-01-16T03:06:39.741Z,81.14
2024-01-16T03:09:07.656Z,82.84
2024-01-16T03:11:34.686Z,79.30
2024-01-16T03:14:02.793Z,81.19
2024-01-16T03:16:29.878Z,82.05
2024-01-16T03:18:57.233Z,81.24
2024-01-16T03:21:24.238Z,79.00
2024-01-16T03:23:51.556Z,76.96
2024-01-16T03:26:18.596Z,77.67
2024-01-16T03:28:46.324Z,79.64
2024-01-16T03:31:15.269Z,79.52
2024-01-16T03:33:43.888Z,78.28
2024-01-16T03:36:11.612Z,81.44
2024-01-16T03:38:38.512Z,81.30
2024-01-16T03:41:07.843Z,82.17
2024-01-16T03:43:37.940Z,81.44
2024-01-16T03:46:04.916Z,80.78
2024-01-16T03:48:31.937Z,80.58
2024-01-16T03:50:58.915Z,82.60
2024-01-16T03:53:25.856Z,79.67
2024-01-16T03:55:52.696Z,80.57
2024-01-16T03:58:19.549Z,79.43
2024-01-16T04:00:47.183Z,76.54
2024-01-16T04:03:14.743Z,76.78
2024-01-16T04:05:41.791Z,75.57
2024-01-16T04:08:08.941Z,75.15
2024-01-16T04:10:36.179Z,75.38
2024-01-16T04:13:04.054Z,76.59
2024-01-16T04:15:30.964Z,75.29
2024-01-16T04:17:58.199Z,76.77
2024-01-16T04:20:25.229Z,76.64
2024-01-16T04:22:52.145Z,76.39
2024-01-16T04:25:19.060Z,75.54
2024-01-16T04:27:45.913Z,79.80
2024-01-16T04:30:13.805Z,79.38
2024-01-16T04:32:40.852Z,79.19
2024-01-16T04:35:08.517Z,78.98
2024-01-16T04:37:35.426Z,78.74
2024-01-16T04:40:02.448Z,76.37
2024-01-16T04:42:29.338Z,76.57
2024-01-16T04:44:56.555Z,75.64
2024-01-16T04:47:23.669Z,77.36
2024-01-16T04:49:50.598Z,76.54
2024-01-16T04:52:17.503Z,75.93
2024-01-16T04:54:46.663Z,76.73
2024-01-16T04:57:13.696Z,76.52
2024-01-16T04:59:40.637Z,76.50
2024-01-16T05:02:07.653Z,76.77
2024-01-16T05:04:38.046Z,77.19
2024-01-16T05:07:05.210Z,76.40
2024-01-16T05:09:32.100Z,76.83
2024-01-16T05:11:58.946Z,77.02
2024-01-16T05:14:26.420Z,77.95
2024-01-16T05:16:53.765Z,79.42
2024-01-16T05:19:20.867Z,77.29
2024-01-16T05:21:47.812Z,78.95
2024-01-16T05:24:14.664Z,77.84
2024-01-16T05:26:41.653Z,78.20
2024-01-16T05:29:08.585Z,79.48
2024-01-16T05:31:44.258Z,79.04
2024-01-16T05:34:12.397Z,78.31
2024-01-16T05:36:39.537Z,78.56
2024-01-16T05:39:06.616Z,78.64
2024-01-16T05:41:35.072Z,79.44
2024-01-16T05:44:05.010Z,78.90
2024-01-16T05:46:35.204Z,79.25
2024-01-16T05:49:02.459Z,81.39
2024-01-16T05:51:30.490Z,80.77
2024-01-16T05:53:57.658Z,81.14
2024-01-16T05:56:24.652Z,79.88
2024-01-16T05:58:53.220Z,80.27
2024-01-16T06:01:20.250Z,80.89
2024-01-16T06:03:50.204Z,81.00
2024-01-16T06:06:17.800Z,82.40
2024-01-16T06:08:45.023Z,81.80
2024-01-16T06:11:14.361Z,80.81
2024-01-16T06:13:42.814Z,81.47
2024-01-16T06:16:09.688Z,80.60
2024-01-16T06:18:37.404Z,80.88
2024-01-16T06:21:04.907Z,83.88
2024-01-16T06:23:31.907Z,83.41
2024-01-16T06:25:58.924Z,82.86
2024-01-16T06:28:25.830Z,82.54
2024-01-16T06:30:52.837Z,82.28
2024-01-16T06:33:19.860Z,82.99
2024-01-16T06:35:46.808Z,82.20
2024-01-16T06:38:13.848Z,81.45
2024-01-16T06:40:41.261Z,82.02
2024-01-16T06:43:08.406Z,81.48
2024-01-16T06:45:35.408Z,80.19
2024-01-16T06:48:02.361Z,81.90
2024-01-16T06:50:31.102Z,81.40
2024-01-16T06:52:58.108Z,80.30
2024-01-16T06:55:25.232Z,79.70
2024-01-16T06:57:53.141Z,79.88
2024-01-16T07:00:21.885Z,80.40
2024-01-16T07:02:49.248Z,80.08
2024-01-16T07:05:16.424Z,78.73
2024-01-16T07:07:44.872Z,79.93
2024-01-16T07:10:19.094Z,80.17
2024-01-16T07:12:46.512Z,81.17
2024-01-16T07:15:14.452Z,82.06
2024-01-16T07:17:41.682Z,82.19
2024-01-16T07:20:09.347Z,82.27
2024-01-16T07:22:38.339Z,83.97
2024-01-16T07:25:05.562Z,83.16
2024-01-16T07:27:32.513Z,83.29
2024-01-16T07:29:59.353Z,83.85
2024-01-16T07:32:27.860Z,84.38
2024-01-16T07:34:55.701Z,83.22
2024-01-16T07:37:22.535Z,81.79
2024-01-16T07:39:49.560Z,81.29
2024-01-16T07:42:16.485Z,81.15
2024-01-16T07:44:43.699Z,81.83
2024-01-16T07:47:10.846Z,82.56
2024-01-16T07:49:37.942Z,83.47
2024-01-16T07:52:05.045Z,82.62
2024-01-16T07:54:32.351Z,81.22
2024-01-16T07:57:00.545Z,82.68
2024-01-16T07:59:29.465Z,82.91
2024-01-16T08:01:56.409Z,83.11
2024-01-16T08:04:23.361Z,84.91
2024-01-16T08:06:50.505Z,83.28
2024-01-16T08:09:18.486Z,83.48
2024-01-16T08:11:45.394Z,82.80
2024-01-16T08:14:12.334Z,82.22
2024-01-16T08:16:39.213Z,81.99
2024-01-16T08:19:06.376Z,81.50
2024-01-16T08:21:33.330Z,81.62
2024-01-16T08:24:00.552Z,82.15
2024-01-16T08:26:27.551Z,81.62
2024-01-16T08:28:54.382Z,81.91
2024-01-16T08:31:21.239Z,81.87
2024-01-16T08:33:50.751Z,82.28
2024-01-16T08:36:19.567Z,83.19
2024-01-16T08:38:47.654Z,82.52
2024-01-16T08:41:14.672Z,82.55
2024-01-16T08:43:41.509Z,82.42
2024-01-16T08:46:08.595Z,82.85
2024-01-16T08:48:35.647Z,82.37
2024-01-16T08:51:04.939Z,81.47
2024-01-16T08:53:32.197Z,80.67
2024-01-16T08:55:59.285Z,80.83
2024-01-16T08:58:26.223Z,81.80
2024-01-16T09:00:53.193Z,80.82
2024-01-16T09:03:20.046Z,79.94
2024-01-16T09:05:47.090Z,78.57
2024-01-16T09:08:14.334Z,79.97
2024-01-16T09:10:41.558Z,79.56
2024-01-16T09:13:08.516Z,78.34
2024-01-16T09:15:35.746Z,79.31
2024-01-16T09:18:02.943Z,79.10
2024-01-16T09:20:30.153Z,77.49
2024-01-16T09:22:57.077Z,76.63
2024-01-16T09:25:28.474Z,74.78
2024-01-16T09:27:55.561Z,72.06
2024-01-16T09:30:23.832Z,73.17
2024-01-16T09:32:50.954Z,72.71
2024-01-16T09:35:18.006Z,70.86
2024-01-16T09:37:44.974Z,71.92
2024-01-16T09:40:12.494Z,70.89
2024-01-16T09:42:39.349Z,73.05
2024-01-16T09:45:06.892Z,73.94
2024-01-16T09:47:35.497Z,73.11
2024-01-16T09:50:04.395Z,71.41
2024-01-16T09:52:31.467Z,72.61
2024-01-16T09:54:58.367Z,71.43
2024-01-16T09:57:29.541Z,72.44
2024-01-16T09:59:58.903Z,74.02
2024-01-16T10:02:26.037Z,74.42
2024-01-16T10:04:53.131Z,73.17
2024-01-16T10:07:26.850Z,75.03
2024-01-16T10:09:53.830Z,73.85
2024-01-16T10:12:20.715Z,74.44
2024-01-16T10:14:49.823Z,73.87
2024-01-16T10:17:19.028Z,72.37
2024-01-16T10:19:55.981Z,70.89
2024-01-16T10:22:26.719Z,72.43
2024-01-16T10:25:18.160Z,73.95
2024-01-16T10:27:45.401Z,75.05
2024-01-16T10:30:13.040Z,73.72
2024-01-16T10:32:43.055Z,73.30
2024-01-16T10:35:13.503Z,73.69
2024-01-16T10:37:54.840Z,74.44
2024-01-16T10:40:27.656Z,72.67
2024-01-16T10:43:02.053Z,72.44
2024-01-16T10:45:29.396Z,73.90
2024-01-16T10:48:08.386Z,72.87
2024-01-16T10:50:38.155Z,72.48
2024-01-16T10:53:09.748Z,72.99
2024-01-16T10:55:54.063Z,72.39
2024-01-16T10:58:24.776Z,70.42
2024-01-16T11:00:54.897Z,68.65
2024-01-16T11:03:50.377Z,68.11
2024-01-16T11:06:19.235Z,68.86
2024-01-16T11:08:51.067Z,66.88
2024-01-16T11:11:18.601Z,67.10
2024-01-16T11:13:47.861Z,67.71
2024-01-16T11:16:15.181Z,68.42
2024-01-16T11:18:42.175Z,69.62
2024-01-16T11:21:16.481Z,71.19
2024-01-16T11:23:47.207Z,71.68
2024-01-16T11:26:41.223Z,70.56
2024-01-16T11:29:30.316Z,70.19
2024-01-16T11:32:13.152Z,70.69
2024-01-16T11:34:45.612Z,71.54
2024-01-16T11:37:16.941Z,71.75
2024-01-16T11:39:43.885Z,69.92
2024-01-16T11:42:11.450Z,70.88
2024-01-16T11:44:51.185Z,70.81
2024-01-16T11:47:24.148Z,69.63
2024-01-16T11:50:30.520Z,69.93
2024-01-16T11:52:59.166Z,68.97
2024-01-16T11:55:37.648Z,69.08
2024-01-16T11:59:09.662Z,67.80
2024-01-16T12:01:37.426Z,67.97
2024-01-16T12:04:08.252Z,67.91
2024-01-16T12:06:37.298Z,67.62
2024-01-16T12:09:27.238Z,66.75
2024-01-16T12:12:04.202Z,66.88
2024-01-16T12:14:31.723Z,66.01
2024-01-16T12:17:15.623Z,66.08
2024-01-16T12:19:44.251Z,63.56
2024-01-16T12:22:14.743Z,63.48
2024-01-16T12:24:42.875Z,65.40
2024-01-16T12:27:11.020Z,66.28
2024-01-16T12:29:38.023Z,65.27
2024-01-16T12:32:13.063Z,65.08
2024-01-16T12:34:49.734Z,65.48
2024-01-16T12:37:17.843Z,64.05
2024-01-16T12:39:44.898Z,64.60
2024-01-16T12:42:13.178Z,63.25
2024-01-16T12:44:40.609Z,62.86
2024-01-16T12:47:07.645Z,64.76
2024-01-16T12:49:43.032Z,65.28
2024-01-16T12:52:26.646Z,64.84
2024-01-16T12:55:02.061Z,64.65
2024-01-16T12:57:29.480Z,64.26
2024-01-16T12:59:58.388Z,63.51
2024-01-16T13:02:26.779Z,61.45
2024-01-16T13:05:03.961Z,62.21
2024-01-16T13:07:34.310Z,62.79
2024-01-16T13:10:10.075Z,63.49
2024-01-16T13:12:37.622Z,63.52
2024-01-16T13:15:08.562Z,63.17
2024-01-16T13:17:36.235Z,62.53
2024-01-16T13:20:04.713Z,62.51
2024-01-16T13:22:42.918Z,60.67
2024-01-16T13:25:12.609Z,61.24
2024-01-16T13:27:39.469Z,62.04
2024-01-16T13:30:08.903Z,61.18
2024-01-16T13:32:38.427Z,62.15
2024-01-16T13:35:09.709Z,61.35
2024-01-16T13:37:39.489Z,59.31
2024-01-16T13:40:16.900Z,59.51
2024-01-16T13:42:44.046Z,57.89
2024-01-16T13:45:12.046Z,59.53
2024-01-16T13:47:41.787Z,61.27
2024-01-16T13:50:09.473Z,58.22
2024-01-16T13:52:37.243Z,58.61
2024-01-16T13:55:06.423Z,59.38
2024-01-16T13:57:36.185Z,58.26
2024-01-16T14:00:09.337Z,56.19
2024-01-16T14:02:38.407Z,57.47
2024-01-16T14:05:06.924Z,57.85
2024-01-16T14:07:33.802Z,58.26
2024-01-16T14:10:00.639Z,58.29
2024-01-16T14:12:27.974Z,56.83
2024-01-16T14:14:54.858Z,56.54
2024-01-16T14:17:21.777Z,56.95
2024-01-16T14:19:48.610Z,55.85
2024-01-16T14:22:16.880Z,58.35
2024-01-16T14:24:44.478Z,58.32
2024-01-16T14:27:11.714Z,58.73
2024-01-16T14:29:40.925Z,57.38
2024-01-16T14:32:07.938Z,58.38
2024-01-16T14:34:34.880Z,58.38
2024-01-16T14:37:01.768Z,57.21
2024-01-16T14:39:31.942Z,57.60
2024-01-16T14:42:03.415Z,57.09
2024-01-16T14:44:30.869Z,55.40
2024-01-16T14:46:58.139Z,56.08
2024-01-16T14:49:25.105Z,57.62
2024-01-16T14:51:52.215Z,56.33
2024-01-16T14:54:19.607Z,55.85
2024-01-16T14:56:46.984Z,54.80
2024-01-16T14:59:16.305Z,54.38
2024-01-16T15:01:45.470Z,55.72
2024-01-16T15:04:13.142Z,53.96
2024-01-16T15:06:40.495Z,53.80
2024-01-16T15:09:11.348Z,55.19
2024-01-16T15:11:38.310Z,54.65
2024-01-16T15:14:05.443Z,56.64
2024-01-16T15:16:32.658Z,57.12
2024-01-16T15:18:59.823Z,58.20
2024-01-16T15:21:26.904Z,58.15
2024-01-16T15:23:53.902Z,57.98
2024-01-16T15:26:22.369Z,57.91
2024-01-16T15:28:50.743Z,58.07
2024-01-16T15:31:18.672Z,57.62
2024-01-16T15:33:45.856Z,58.25
2024-01-16T15:36:12.989Z,58.26
2024-01-16T15:38:39.973Z,58.49
2024-01-16T15:41:07.135Z,59.31
2024-01-16T15:43:34.012Z,59.06
2024-01-16T15:46:01.246Z,58.31
2024-01-16T15:48:34.558Z,59.26
2024-01-16T15:51:02.197Z,59.40
2024-01-16T15:53:29.328Z,59.90
2024-01-16T15:55:56.320Z,60.53
2024-01-16T15:58:23.261Z,59.57
2024-01-16T16:00:50.306Z,59.95
2024-01-16T16:03:17.723Z,59.50
2024-01-16T16:05:44.770Z,60.18
2024-01-16T16:08:11.703Z,59.54
2024-01-16T16:10:40.149Z,59.29
2024-01-16T16:13:08.113Z,58.99
2024-01-16T16:15:36.064Z,59.24
2024-01-16T16:18:03.319Z,60.27
2024-01-16T16:20:30.755Z,60.77
2024-01-16T16:22:57.753Z,59.97
2024-01-16T16:25:24.654Z,60.43
2024-01-16T16:27:51.607Z,61.34
2024-01-16T16:30:19.010Z,61.34
2024-01-16T16:32:46.064Z,60.68
2024-01-16T16:35:13.598Z,60.97
2024-01-16T16:37:40.603Z,61.58
2024-01-16T16:40:11.118Z,60.50
2024-01-16T16:42:39.064Z,60.71
2024-01-16T16:45:07.536Z,59.64
2024-01-16T16:47:34.688Z,59.94
2024-01-16T16:50:01.664Z,60.25
2024-01-16T16:52:28.483Z,61.69
2024-01-16T16:54:55.409Z,63.94
2024-01-16T16:57:23.311Z,64.97
2024-01-16T16:59:51.531Z,65.48
2024-01-16T17:02:20.912Z,66.10
2024-01-16T17:04:48.026Z,65.84
2024-01-16T17:07:15.118Z,63.44
2024-01-16T17:09:45.626Z,62.23
2024-01-16T17:12:12.711Z,62.45
2024-01-16T17:14:39.669Z,61.88
2024-01-16T17:17:07.525Z,63.14
2024-01-16T17:19:34.562Z,63.33
2024-01-16T17:22:03.945Z,62.84
2024-01-16T17:24:31.067Z,62.57
2024-01-16T17:26:58.175Z,63.87
2024-01-16T17:29:25.182Z,63.23
2024-01-16T17:31:53.001Z,63.07
2024-01-16T17:34:19.940Z,63.83
2024-01-16T17:36:47.264Z,64.34
2024-01-16T17:39:16.412Z,63.02
2024-01-16T17:41:47.437Z,63.50
2024-01-16T17:44:14.335Z,65.00
2024-01-16T17:46:47.126Z,65.27
2024-01-16T17:49:15.205Z,64.79
2024-01-16T17:51:42.719Z,63.87
2024-01-16T17:54:09.590Z,64.57
2024-01-16T17:56:36.744Z,63.99
2024-01-16T17:59:05.092Z,64.17
2024-01-16T18:01:33.739Z,63.60
2024-01-16T18:04:01.380Z,63.36
2024-01-16T18:06:28.524Z,62.89
2024-01-16T18:08:58.169Z,62.84
2024-01-16T18:11:25.045Z,62.98
2024-01-16T18:13:53.195Z,62.68
2024-01-16T18:16:20.134Z,62.96
2024-01-16T18:18:47.393Z,63.84
2024-01-16T18:21:14.486Z,63.09
2024-01-16T18:23:42.414Z,63.08
2024-01-16T18:26:09.915Z,62.82
2024-01-16T18:28:37.020Z,63.10
2024-01-16T18:31:04.638Z,63.33
2024-01-16T18:33:31.933Z,63.43
2024-01-16T18:36:01.391Z,63.59
2024-01-16T18:38:29.212Z,63.94
2024-01-16T18:40:57.204Z,63.89
2024-01-16T18:43:24.429Z,63.57
2024-01-16T18:45:52.798Z,63.75
2024-01-16T18:48:20.272Z,64.08
2024-01-16T18:50:51.408Z,63.93
2024-01-16T18:53:18.544Z,64.00
2024-01-16T18:55:45.522Z,64.47
2024-01-16T18:58:14.033Z,63.63
2024-01-16T19:00:43.448Z,63.78
2024-01-16T19:03:10.552Z,63.69
2024-01-16T19:05:37.792Z,64.96
2024-01-16T19:08:05.351Z,65.57
2024-01-16T19:10:32.277Z,66.63
2024-01-16T19:12:59.220Z,65.91
2024-01-16T19:15:26.135Z,64.96
2024-01-16T19:17:54.565Z,66.09
2024-01-16T19:20:24.652Z,65.63
2024-01-16T19:22:53.465Z,65.07
2024-01-16T19:25:22.512Z,65.18
2024-01-16T19:27:50.613Z,65.57
2024-01-16T19:30:20.284Z,66.27
2024-01-16T19:32:49.301Z,66.08
2024-01-16T19:35:18.132Z,65.61
2024-01-16T19:37:45.713Z,65.71
2024-01-16T19:40:14.081Z,66.00
2024-01-16T19:42:41.901Z,65.75
2024-01-16T19:45:10.801Z,64.92
2024-01-16T19:47:40.850Z,65.78
2024-01-16T19:50:20.670Z,66.07
2024-01-16T19:52:51.363Z,65.72
2024-01-16T19:55:28.072Z,64.77
2024-01-16T19:57:57.693Z,66.79
2024-01-16T20:00:24.640Z,67.19
2024-01-16T20:02:51.616Z,68.86
2024-01-16T20:05:18.859Z,68.65
2024-01-16T20:07:47.127Z,67.23
2024-01-16T20:10:15.018Z,67.43
2024-01-16T20:12:46.357Z,67.68
2024-01-16T20:15:16.384Z,67.32
2024-01-16T20:17:44.243Z,66.83
2024-01-16T20:20:12.014Z,66.43
2024-01-16T20:22:40.083Z,66.37
2024-01-16T20:25:07.414Z,66.41
2024-01-16T20:27:35.155Z,66.97
2024-01-16T20:30:06.318Z,67.63
2024-01-16T20:32:34.674Z,67.90
2024-01-16T20:35:02.485Z,68.57
2024-01-16T20:37:30.636Z,68.93
2024-01-16T20:39:58.533Z,69.84
2024-01-16T20:42:25.490Z,69.04
2024-01-16T20:44:52.582Z,69.10
2024-01-16T20:47:19.564Z,67.47
2024-01-16T20:49:48.990Z,67.59
2024-01-16T20:52:16.798Z,68.01
2024-01-16T20:54:43.911Z,67.94
2024-01-16T20:57:10.843Z,68.21
2024-01-16T20:59:37.832Z,68.93
2024-01-16T21:02:04.894Z,68.35
2024-01-16T21:04:31.831Z,68.39
2024-01-16T21:07:04.509Z,68.79
2024-01-16T21:09:31.790Z,68.23
2024-01-16T21:12:01.345Z,68.81
2024-01-16T21:14:30.187Z,68.06
2024-01-16T21:16:57.104Z,68.44
2024-01-16T21:19:23.996Z,68.73
2024-01-16T21:21:55.660Z,68.78
2024-01-16T21:24:22.673Z,68.03
2024-01-16T21:26:50.621Z,68.75
2024-01-16T21:29:17.652Z,68.85
2024-01-16T21:31:54.044Z,69.31
2024-01-16T21:34:24.000Z,68.52
2024-01-16T21:36:52.884Z,68.96
2024-01-16T21:39:21.382Z,68.45
2024-01-16T21:41:48.610Z,68.58
2024-01-16T21:44:15.522Z,69.32
2024-01-16T21:46:43.420Z,69.66
2024-01-16T21:49:11.553Z,68.34
2024-01-16T21:51:38.872Z,68.97
2024-01-16T21:54:07.104Z,69.59
2024-01-16T21:56:34.997Z,69.48
2024-01-16T21:59:02.592Z,69.62
2024-01-16T22:01:30.592Z,71.25
2024-01-16T22:03:57.965Z,69.99
2024-01-16T22:06:26.009Z,70.13
2024-01-16T22:08:54.341Z,70.87
2024-01-16T22:11:21.515Z,70.76
2024-01-16T22:13:48.583Z,72.42
2024-01-16T22:16:15.822Z,72.61
2024-01-16T22:18:46.330Z,72.03
2024-01-16T22:21:15.426Z,70.85
2024-01-16T22:23:42.832Z,70.24
2024-01-16T22:26:09.785Z,70.45
2024-01-16T22:28:38.709Z,70.17
2024-01-16T22:31:05.846Z,70.67
2024-01-16T22:33:33.498Z,70.31
2024-01-16T22:36:02.050Z,70.65
2024-01-16T22:38:29.049Z,70.15
2024-01-16T22:40:57.285Z,71.66
2024-01-16T22:43:24.179Z,71.90
2024-01-16T22:45:52.665Z,70.58
2024-01-16T22:48:19.899Z,70.62
2024-01-16T22:50:50.723Z,71.67
2024-01-16T22:53:18.474Z,73.38
2024-01-16T22:55:47.209Z,74.03
2024-01-16T22:58:15.680Z,74.69
2024-01-16T23:00:43.497Z,75.32
2024-01-16T23:03:12.870Z,76.06
2024-01-16T23:05:46.098Z,74.96
2024-01-16T23:08:13.050Z,74.06
2024-01-16T23:10:40.229Z,74.42
2024-01-16T23:13:07.134Z,74.85
2024-01-16T23:15:33.946Z,74.51
2024-01-16T23:18:00.970Z,74.60
2024-01-16T23:20:31.827Z,73.76
2024-01-16T23:22:58.848Z,72.77
2024-01-16T23:25:27.222Z,73.13
2024-01-16T23:27:54.237Z,74.44
2024-01-16T23:30:21.111Z,74.58
2024-01-16T23:32:48.096Z,74.40
2024-01-16T23:35:16.160Z,73.67
2024-01-16T23:37:45.157Z,73.31
2024-01-16T23:40:13.701Z,73.35
2024-01-16T23:42:42.842Z,73.23
2024-01-16T23:45:20.433Z,72.45
2024-01-16T23:47:54.880Z,73.06
2024-01-16T23:50:22.427Z,72.69
2024-01-16T23:52:52.405Z,73.26
2024-01-16T23:55:19.310Z,73.53
2024-01-16T23:57:46.270Z,72.79
